Time;durP1;ratioP1;P1;durP2;ratioP2;P2;SDS_P1;SDS_P2;PMS_P1;PMS_P2;Temp;Humidity;BMP_temperature;BMP_pressure;BME280_temperature;BME280_humidity;BME280_pressure;Samples;Min_cycle;Max_cycle;Signal;HPM_P1;HPM_P2
2022/01/27 00:01:00;;;;;;;0.43;0.10;;;2.90;66.10;;;;;;21144396;28;20039;-48
2022/01/27 00:11:09;;;;;;;0.15;0.08;;;3.10;66.10;;;;;;21143678;28;20089;-46
2022/01/27 00:21:13;;;;;;;0.25;0.00;;;3.30;65.50;;;;;;21142476;28;20051;-46
2022/01/27 00:31:18;;;;;;;0.10;0.00;;;3.20;65.70;;;;;;21141801;28;20108;-49
2022/01/27 00:41:22;;;;;;;0.05;0.00;;;3.50;63.50;;;;;;21140305;28;20035;-50
2022/01/27 00:51:29;;;;;;;0.52;0.10;;;3.50;64.10;;;;;;21140216;28;20440;-49
2022/01/27 01:01:40;;;;;;;0.13;0.00;;;3.70;62.60;;;;;;21139173;28;20043;-46
2022/01/27 01:12:17;;;;;;;0.25;0.00;;;3.80;62.20;;;;;;21130472;28;20085;-46
2022/01/27 01:42:38;;;;;;;0.17;0.05;;;3.50;63.80;;;;;;21135720;28;20035;-46
2022/01/27 01:52:43;;;;;;;0.30;0.00;;;3.60;64.60;;;;;;21117705;28;20028;-49
2022/01/27 02:02:45;;;;;;;0.28;0.10;;;3.50;63.30;;;;;;21134975;28;20035;-51
2022/01/27 02:23:14;;;;;;;0.20;0.05;;;3.90;61.90;;;;;;21133451;28;20043;-51
2022/01/27 02:33:30;;;;;;;0.10;0.00;;;4.40;59.50;;;;;;21133021;28;20047;-50
2022/01/27 02:43:32;;;;;;;0.10;0.00;;;4.50;59.00;;;;;;21132904;28;20085;-48
2022/01/27 02:53:35;;;;;;;0.20;0.00;;;4.40;60.50;;;;;;21133708;28;20032;-46
2022/01/27 03:03:38;;;;;;;0.00;0.00;;;4.00;60.50;;;;;;21145191;28;20040;-46
2022/01/27 03:13:42;;;;;;;0.17;0.10;;;3.80;59.40;;;;;;21148193;28;20149;-49
2022/01/27 03:23:44;;;;;;;0.68;0.10;;;3.80;62.40;;;;;;21148111;28;20031;-49
2022/01/27 03:33:47;;;;;;;0.10;0.00;;;3.30;63.60;;;;;;21146165;28;20096;-47
2022/01/27 03:43:51;;;;;;;0.65;0.00;;;3.50;61.30;;;;;;21145576;28;20479;-50
2022/01/27 03:53:54;;;;;;;0.20;0.03;;;4.00;59.30;;;;;;21144771;28;20080;-47
2022/01/27 04:03:59;;;;;;;0.00;0.00;;;4.40;58.30;;;;;;21144440;28;20035;-47
2022/01/27 04:14:03;;;;;;;0.00;0.00;;;4.20;59.20;;;;;;21142289;28;20081;-48
2022/01/27 04:24:05;;;;;;;0.08;0.00;;;3.80;60.60;;;;;;21142595;28;20058;-49
2022/01/27 04:34:08;;;;;;;0.10;0.05;;;3.70;59.90;;;;;;21141765;28;20032;-47
2022/01/27 04:54:31;;;;;;;0.00;0.00;;;3.80;58.60;;;;;;21136486;28;20047;-50
2022/01/27 05:04:41;;;;;;;0.00;0.00;;;3.90;57.70;;;;;;21139608;28;20031;-46
2022/01/27 05:14:43;;;;;;;0.43;0.08;;;4.50;54.70;;;;;;21129878;28;20032;-46
2022/01/27 05:24:46;;;;;;;0.10;0.00;;;4.80;53.80;;;;;;21136519;28;20123;-49
2022/01/27 05:34:49;;;;;;;0.08;0.00;;;5.00;52.60;;;;;;21136772;28;20136;-49
2022/01/27 05:44:51;;;;;;;0.10;0.00;;;5.10;52.10;;;;;;21154519;28;20043;-46
2022/01/27 05:54:54;;;;;;;0.20;0.00;;;5.10;51.80;;;;;;21135522;28;20490;-48
2022/01/27 06:04:57;;;;;;;0.30;0.03;;;5.20;50.20;;;;;;21134765;28;20382;-46
2022/01/27 06:15:00;;;;;;;0.00;0.00;;;5.30;49.90;;;;;;21133645;28;20089;-46
2022/01/27 06:25:04;;;;;;;0.08;0.00;;;5.30;49.20;;;;;;21133387;28;20036;-48
2022/01/27 06:35:07;;;;;;;0.10;0.00;;;5.00;50.00;;;;;;21132550;28;20035;-46
2022/01/27 06:45:10;;;;;;;0.00;0.00;;;4.90;49.80;;;;;;21132569;28;20100;-46
2022/01/27 06:55:17;;;;;;;0.00;0.00;;;5.30;49.40;;;;;;21132046;28;20035;-49
2022/01/27 07:05:21;;;;;;;0.20;0.00;;;5.20;49.80;;;;;;21133070;28;20395;-46
2022/01/27 07:15:23;;;;;;;0.00;0.00;;;5.20;49.20;;;;;;21132039;28;20449;-48
2022/01/27 07:25:26;;;;;;;0.03;0.00;;;5.40;48.30;;;;;;21131084;28;20065;-46
2022/01/27 07:35:28;;;;;;;0.20;0.00;;;5.80;46.90;;;;;;21131082;28;20392;-49
2022/01/27 07:45:31;;;;;;;0.10;0.00;;;6.20;46.40;;;;;;21135294;28;20036;-47
2022/01/27 07:55:34;;;;;;;0.10;0.00;;;6.30;46.30;;;;;;21163598;28;20039;-47
2022/01/27 08:05:37;;;;;;;0.10;0.00;;;6.30;46.60;;;;;;21144229;28;20491;-49
2022/01/27 08:15:40;;;;;;;0.10;0.00;;;6.50;46.10;;;;;;21142956;28;20399;-46
2022/01/27 08:25:47;;;;;;;0.28;0.10;;;6.70;45.30;;;;;;21142650;28;20097;-48
2022/01/27 08:35:50;;;;;;;0.00;0.00;;;7.00;44.30;;;;;;21142098;28;20475;-48
2022/01/27 08:45:53;;;;;;;3.15;1.17;;;7.30;44.70;;;;;;21140942;28;20436;-48
2022/01/27 08:55:56;;;;;;;1.50;0.70;;;7.50;43.20;;;;;;21139472;28;20057;-47
2022/01/27 09:05:59;;;;;;;0.77;0.22;;;7.80;41.90;;;;;;21139618;28;20364;-47
2022/01/27 09:16:02;;;;;;;0.00;0.00;;;8.00;42.40;;;;;;21138627;28;20051;-46
2022/01/27 09:26:09;;;;;;;0.00;0.00;;;8.30;42.80;;;;;;21137619;28;20047;-47
2022/01/27 09:36:12;;;;;;;0.00;0.00;;;8.50;42.00;;;;;;21136815;28;20028;-50
2022/01/27 09:46:18;;;;;;;0.77;0.20;;;8.80;41.50;;;;;;21136191;28;20108;-50
2022/01/27 09:56:22;;;;;;;1.15;0.10;;;8.40;47.30;;;;;;21135648;28;20036;-46
2022/01/27 10:06:32;;;;;;;0.10;0.10;;;8.40;44.70;;;;;;21135079;28;20035;-50
2022/01/27 10:16:40;;;;;;;1.05;0.10;;;8.90;42.00;;;;;;21133955;28;20048;-48
2022/01/27 10:26:46;;;;;;;0.00;0.00;;;9.30;43.80;;;;;;21133495;28;20040;-47
2022/01/27 10:36:49;;;;;;;0.93;0.28;;;9.60;42.50;;;;;;21134405;28;20039;-49
2022/01/27 10:47:26;;;;;;;1.85;0.45;;;9.70;48.30;;;;;;21132419;28;20043;-47
2022/01/27 10:57:29;;;;;;;0.60;0.20;;;9.80;46.70;;;;;;21132774;28;20398;-50
2022/01/27 11:07:32;;;;;;;0.70;0.22;;;9.90;50.10;;;;;;21097503;28;20062;-49
2022/01/27 11:17:38;;;;;;;0.90;0.25;;;9.80;47.50;;;;;;21047663;28;20052;-48
2022/01/27 11:27:45;;;;;;;1.75;0.50;;;9.80;48.20;;;;;;21047159;28;20052;-48
2022/01/27 11:37:51;;;;;;;0.60;0.30;;;10.10;49.40;;;;;;21062821;28;20044;-50
2022/01/27 11:48:01;;;;;;;0.52;0.30;;;10.30;48.10;;;;;;21138464;28;20031;-48
2022/01/27 11:58:24;;;;;;;0.80;0.50;;;10.90;48.00;;;;;;21146442;28;20035;-54
2022/01/27 12:08:27;;;;;;;1.38;0.50;;;11.00;48.00;;;;;;21145057;28;20076;-50
2022/01/27 12:18:36;;;;;;;1.08;0.40;;;11.20;47.10;;;;;;21126068;28;20043;-47
2022/01/27 12:28:40;;;;;;;0.95;0.40;;;11.50;47.20;;;;;;21143758;28;20035;-48
2022/01/27 12:38:43;;;;;;;0.60;0.32;;;10.90;47.10;;;;;;21119259;28;20089;-48
2022/01/27 12:48:48;;;;;;;0.30;0.20;;;10.50;45.20;;;;;;21052228;28;20028;-66
2022/01/27 12:58:51;;;;;;;0.30;0.20;;;10.60;46.80;;;;;;21065123;28;20077;-59
2022/01/27 13:09:12;;;;;;;1.10;0.43;;;10.90;47.70;;;;;;21130837;28;20484;-59
2022/01/27 13:19:25;;;;;;;2.42;1.17;;;10.90;49.00;;;;;;21090637;28;20128;-63
2022/01/27 13:41:48;;;;;;;1.77;1.27;;;10.80;54.00;;;;;;21074997;28;20035;-59
2022/01/27 13:51:57;;;;;;;1.80;0.88;;;9.80;52.20;;;;;;21064934;28;20530;-62
2022/01/27 14:02:20;;;;;;;3.25;1.80;;;9.20;52.70;;;;;;21086709;27;20036;-60
2022/01/27 14:12:31;;;;;;;3.58;1.70;;;8.80;55.50;;;;;;21061818;28;20075;-62
2022/01/27 14:22:40;;;;;;;5.13;1.77;;;8.40;56.80;;;;;;21093560;28;20088;-55
2022/01/27 14:32:44;;;;;;;3.55;1.60;;;8.20;55.80;;;;;;21107882;28;20035;-63
2022/01/27 14:42:47;;;;;;;3.85;2.03;;;7.80;58.70;;;;;;21067510;28;20096;-60
2022/01/27 14:52:52;;;;;;;4.40;1.88;;;7.20;55.80;;;;;;21064832;28;20492;-55
2022/01/27 15:02:56;;;;;;;3.63;1.88;;;6.90;57.40;;;;;;21093570;28;20464;-56
2022/01/27 15:13:00;;;;;;;6.78;3.10;;;6.70;58.10;;;;;;20162067;28;10000691;-56
2022/01/27 15:23:04;;;;;;;4.90;1.77;;;6.40;61.10;;;;;;20974446;28;20481;-58
2022/01/27 15:33:08;;;;;;;5.53;1.50;;;6.00;61.90;;;;;;20955349;28;20093;-53
2022/01/27 15:43:11;;;;;;;2.58;1.33;;;5.50;65.10;;;;;;20973153;28;20421;-56
2022/01/27 15:53:15;;;;;;;1.90;1.00;;;4.80;64.60;;;;;;20963289;28;20060;-56
2022/01/27 16:03:22;;;;;;;1.42;0.57;;;4.30;68.70;;;;;;20939553;28;20074;-56
2022/01/27 16:13:25;;;;;;;1.02;0.35;;;3.70;67.70;;;;;;20985000;28;20205;-56
2022/01/27 16:23:31;;;;;;;0.85;0.43;;;3.30;69.00;;;;;;20982280;28;20090;-54
2022/01/27 16:33:35;;;;;;;1.05;0.30;;;2.80;67.90;;;;;;20984630;28;20094;-51
2022/01/27 16:43:37;;;;;;;1.80;0.40;;;2.80;67.50;;;;;;20967127;28;20345;-54
2022/01/27 16:53:40;;;;;;;0.40;0.20;;;2.70;67.70;;;;;;20973743;28;20094;-53
2022/01/27 17:03:44;;;;;;;1.63;0.32;;;2.90;65.70;;;;;;20982630;28;20040;-59
2022/01/27 17:13:46;;;;;;;0.10;0.00;;;2.60;65.00;;;;;;20950971;28;20049;-55
2022/01/27 17:23:49;;;;;;;0.20;0.08;;;2.50;63.10;;;;;;20949314;28;20041;-52
2022/01/27 17:33:51;;;;;;;0.10;0.03;;;2.30;63.50;;;;;;20899323;28;20102;-48
2022/01/27 17:44:17;;;;;;;0.40;0.00;;;2.20;63.30;;;;;;20898970;28;20037;-47
2022/01/27 17:54:20;;;;;;;0.20;0.10;;;2.10;61.80;;;;;;20898383;28;20029;-49
2022/01/27 18:04:25;;;;;;;0.00;0.00;;;2.00;63.10;;;;;;20805012;28;20538;-48
2022/01/27 18:14:28;;;;;;;0.50;0.20;;;2.00;63.20;;;;;;20844147;28;20061;-48
2022/01/27 18:24:31;;;;;;;0.00;0.00;;;2.20;62.10;;;;;;20869700;28;20067;-49
2022/01/27 18:34:33;;;;;;;0.00;0.00;;;2.10;61.80;;;;;;20870467;28;20071;-51
2022/01/27 18:44:36;;;;;;;0.43;0.00;;;2.20;62.50;;;;;;20906889;28;20431;-48
2022/01/27 18:54:39;;;;;;;0.80;0.10;;;2.50;60.70;;;;;;20895173;28;20036;-49
2022/01/27 19:04:43;;;;;;;0.10;0.00;;;2.80;58.00;;;;;;20895815;28;20091;-48
2022/01/27 19:14:46;;;;;;;0.22;0.00;;;2.60;57.20;;;;;;20892930;28;20041;-48
2022/01/27 19:24:49;;;;;;;0.00;0.00;;;2.60;58.00;;;;;;20900074;28;20534;-48
2022/01/27 19:34:51;;;;;;;0.43;0.00;;;2.50;57.80;;;;;;20914359;28;20037;-48
2022/01/27 19:44:54;;;;;;;0.10;0.00;;;2.40;58.70;;;;;;20907717;28;20099;-49
2022/01/27 19:54:58;;;;;;;0.03;0.00;;;2.30;58.50;;;;;;20912244;28;20408;-50
2022/01/27 20:05:01;;;;;;;0.10;0.00;;;2.40;58.40;;;;;;20911436;28;20091;-51
2022/01/27 20:15:04;;;;;;;0.10;0.00;;;2.30;57.50;;;;;;20905535;28;20049;-48
2022/01/27 20:25:08;;;;;;;0.00;0.00;;;2.50;56.70;;;;;;20910839;28;20055;-48
2022/01/27 20:35:11;;;;;;;0.20;0.00;;;2.40;58.00;;;;;;20925378;28;20041;-61
2022/01/27 20:45:14;;;;;;;0.20;0.00;;;2.30;57.90;;;;;;20887842;28;20086;-61
2022/01/27 20:55:18;;;;;;;0.22;0.00;;;2.10;57.60;;;;;;20921933;28;20396;-60
2022/01/27 21:05:21;;;;;;;0.10;0.00;;;2.10;56.60;;;;;;20904309;28;20122;-61
2022/01/27 21:15:25;;;;;;;0.32;0.00;;;2.00;57.20;;;;;;20905644;28;20053;-60
2022/01/27 21:25:27;;;;;;;0.20;0.00;;;2.20;56.20;;;;;;20886989;28;20075;-63
2022/01/27 21:35:32;;;;;;;0.10;0.00;;;2.50;55.60;;;;;;20914014;28;20045;-63
2022/01/27 21:45:35;;;;;;;0.00;0.00;;;2.30;54.60;;;;;;20933440;28;20097;-62
2022/01/27 21:55:37;;;;;;;0.30;0.00;;;2.20;55.80;;;;;;20914030;28;20470;-61
2022/01/27 22:05:41;;;;;;;0.03;0.00;;;2.10;55.80;;;;;;20895477;28;20456;-62
2022/01/27 22:15:43;;;;;;;0.30;0.00;;;2.10;56.10;;;;;;20896288;28;20562;-61
2022/01/27 22:25:46;;;;;;;0.15;0.00;;;2.10;56.50;;;;;;20977382;28;20040;-62
2022/01/27 22:35:49;;;;;;;0.25;0.00;;;2.30;55.20;;;;;;20980973;28;20395;-62
2022/01/27 22:45:52;;;;;;;0.15;0.00;;;2.40;53.90;;;;;;20964936;28;20098;-54
2022/01/27 22:55:54;;;;;;;0.22;0.03;;;2.80;51.40;;;;;;20965686;28;20040;-59
2022/01/27 23:05:58;;;;;;;0.10;0.00;;;3.10;51.90;;;;;;20964907;28;20032;-48
2022/01/27 23:26:25;;;;;;;0.00;0.00;;;3.70;51.50;;;;;;20979991;28;20032;-48
2022/01/27 23:36:37;;;;;;;0.38;0.05;;;3.70;51.50;;;;;;20979080;28;20059;-53
2022/01/27 23:56:53;;;;;;;0.00;0.00;;;4.30;50.90;;;;;;20917219;28;20361;-49
